createdAt,value
2018-12-31T00:00:06.288Z,12.32
2018-12-31T00:02:32.397Z,12.71
2018-12-31T00:04:58.477Z,12.67
2018-12-31T00:07:24.810Z,12.50
2018-12-31T00:09:51.219Z,12.50
2018-12-31T00:12:17.284Z,12.60
2018-12-31T00:14:43.397Z,12.54
2018-12-31T00:17:09.466Z,12.42
2018-12-31T00:19:35.580Z,12.32
2018-12-31T00:22:01.962Z,12.38
2018-12-31T00:24:28.006Z,12.35
2018-12-31T00:26:54.007Z,12.28
2018-12-31T00:29:21.766Z,12.33
2018-12-31T00:31:48.234Z,12.32
2018-12-31T00:34:14.548Z,12.36
2018-12-31T00:36:40.986Z,12.38
2018-12-31T00:39:07.045Z,12.40
2018-12-31T00:41:33.071Z,12.33
2018-12-31T00:43:59.453Z,12.24
2018-12-31T00:46:25.466Z,12.47
2018-12-31T00:48:51.821Z,12.37
2018-12-31T00:51:17.886Z,12.34
2018-12-31T00:53:44.277Z,12.14
2018-12-31T00:56:10.354Z,12.25
2018-12-31T00:58:36.738Z,12.11
2018-12-31T01:01:02.826Z,12.36
2018-12-31T01:03:28.929Z,12.31
2018-12-31T01:05:54.947Z,12.18
2018-12-31T01:08:21.322Z,12.20
2018-12-31T01:10:47.677Z,12.19
2018-12-31T01:13:13.784Z,12.25
2018-12-31T01:15:39.869Z,12.24
2018-12-31T01:18:06.011Z,12.40
2018-12-31T01:20:32.107Z,12.45
2018-12-31T01:22:58.129Z,12.49
2018-12-31T01:25:24.538Z,12.48
2018-12-31T01:27:50.651Z,12.36
2018-12-31T01:30:17.001Z,12.37
2018-12-31T01:32:43.085Z,12.28
2018-12-31T01:35:09.128Z,12.31
2018-12-31T01:37:35.259Z,12.30
2018-12-31T01:40:01.333Z,12.37
2018-12-31T01:42:27.729Z,12.38
2018-12-31T01:44:54.200Z,12.23
2018-12-31T01:47:20.610Z,12.30
2018-12-31T01:49:46.926Z,12.30
2018-12-31T01:52:13.256Z,12.34
2018-12-31T01:54:39.336Z,12.31
2018-12-31T01:57:05.702Z,12.39
2018-12-31T01:59:32.044Z,12.30
2018-12-31T02:01:58.117Z,12.24
2018-12-31T02:04:24.523Z,12.32
2018-12-31T02:06:50.968Z,12.12
2018-12-31T02:09:16.970Z,12.19
2018-12-31T02:11:42.992Z,12.39
2018-12-31T02:14:09.389Z,12.35
2018-12-31T02:16:35.837Z,12.25
2018-12-31T02:19:02.182Z,12.48
2018-12-31T02:21:28.606Z,12.70
2018-12-31T02:23:54.642Z,12.60
2018-12-31T02:26:21.081Z,12.38
2018-12-31T02:28:47.820Z,12.28
2018-12-31T02:31:13.918Z,12.37
2018-12-31T02:33:40.008Z,12.33
2018-12-31T02:36:06.403Z,12.17
2018-12-31T02:38:32.823Z,12.19
2018-12-31T02:40:58.904Z,12.29
2018-12-31T02:43:25.283Z,12.39
2018-12-31T02:45:51.295Z,12.30
2018-12-31T02:48:17.346Z,12.31
2018-12-31T02:50:43.417Z,12.29
2018-12-31T02:53:09.424Z,12.28
2018-12-31T02:55:35.840Z,12.20
2018-12-31T02:58:01.968Z,12.21
2018-12-31T03:00:41.214Z,12.20
2018-12-31T03:03:07.343Z,12.26
2018-12-31T03:05:33.447Z,12.33
2018-12-31T03:07:59.857Z,12.35
2018-12-31T03:10:25.893Z,12.40
2018-12-31T03:12:51.961Z,12.25
2018-12-31T03:15:18.338Z,12.25
2018-12-31T03:17:44.365Z,12.24
2018-12-31T03:20:10.371Z,12.35
2018-12-31T03:22:36.417Z,12.33
2018-12-31T03:25:02.796Z,12.33
2018-12-31T03:27:28.865Z,12.26
2018-12-31T03:29:54.882Z,12.40
2018-12-31T03:32:21.005Z,12.32
2018-12-31T03:34:47.350Z,12.26
2018-12-31T03:37:13.374Z,12.25
2018-12-31T03:39:39.824Z,12.15
2018-12-31T03:42:06.262Z,12.22
2018-12-31T03:44:32.335Z,12.19
2018-12-31T03:46:58.721Z,12.21
2018-12-31T03:49:25.144Z,12.25
2018-12-31T03:51:51.177Z,12.25
2018-12-31T03:54:17.300Z,12.19
2018-12-31T03:56:43.405Z,12.28
2018-12-31T03:59:09.425Z,12.30
2018-12-31T04:01:35.866Z,12.27
2018-12-31T04:04:01.882Z,12.27
2018-12-31T04:06:27.966Z,12.36
2018-12-31T04:08:54.301Z,12.23
2018-12-31T04:11:20.321Z,12.21
2018-12-31T04:13:46.417Z,12.37
2018-12-31T04:16:12.826Z,12.39
2018-12-31T04:18:39.180Z,12.30
2018-12-31T04:21:05.255Z,12.37
2018-12-31T04:23:31.681Z,12.36
2018-12-31T04:25:57.768Z,12.38
2018-12-31T04:28:24.188Z,12.31
2018-12-31T04:30:50.566Z,12.23
2018-12-31T04:33:16.557Z,12.24
2018-12-31T04:35:42.581Z,12.29
2018-12-31T04:38:08.994Z,12.29
2018-12-31T04:40:35.349Z,12.25
2018-12-31T04:43:01.393Z,12.35
2018-12-31T04:45:27.882Z,12.40
2018-12-31T04:47:53.949Z,12.33
2018-12-31T04:50:20.340Z,12.19
2018-12-31T04:52:46.354Z,12.22
2018-12-31T04:55:12.813Z,12.25
2018-12-31T04:57:38.896Z,12.30
2018-12-31T05:00:04.996Z,12.14
2018-12-31T05:02:31.053Z,12.25
2018-12-31T05:04:57.086Z,12.35
2018-12-31T05:07:23.880Z,12.44
2018-12-31T05:09:49.965Z,12.51
2018-12-31T05:12:16.514Z,12.40
2018-12-31T05:14:42.619Z,12.38
2018-12-31T05:17:08.704Z,12.36
2018-12-31T05:19:34.986Z,12.33
2018-12-31T05:22:01.030Z,12.32
2018-12-31T05:24:27.137Z,12.31
2018-12-31T05:26:53.510Z,12.33
2018-12-31T05:29:19.924Z,12.34
2018-12-31T05:31:46.013Z,12.40
2018-12-31T05:34:12.085Z,12.44
2018-12-31T05:36:38.105Z,12.35
2018-12-31T05:39:04.455Z,12.45
2018-12-31T05:41:30.930Z,12.50
2018-12-31T05:43:57.014Z,12.43
2018-12-31T05:46:23.521Z,12.37
2018-12-31T05:48:49.632Z,12.45
2018-12-31T05:51:15.718Z,12.52
2018-12-31T05:53:42.204Z,12.50
2018-12-31T05:56:08.224Z,12.52
2018-12-31T05:58:34.319Z,12.48
2018-12-31T06:01:00.783Z,12.55
2018-12-31T06:03:27.217Z,12.50
2018-12-31T06:05:53.653Z,12.44
2018-12-31T06:08:19.983Z,12.40
2018-12-31T06:10:46.140Z,12.47
2018-12-31T06:13:12.250Z,12.45
2018-12-31T06:15:38.320Z,12.44
2018-12-31T06:18:04.808Z,12.46
2018-12-31T06:20:30.805Z,12.40
2018-12-31T06:22:57.175Z,12.45
2018-12-31T06:25:23.285Z,12.48
2018-12-31T06:27:49.730Z,12.50
2018-12-31T06:30:16.145Z,12.53
2018-12-31T06:32:42.236Z,12.44
2018-12-31T06:35:08.672Z,12.46
2018-12-31T06:37:34.733Z,12.49
2018-12-31T06:40:00.785Z,12.44
2018-12-31T06:42:27.190Z,12.47
2018-12-31T06:44:53.622Z,12.46
2018-12-31T06:47:20.056Z,12.38
2018-12-31T06:49:46.152Z,12.47
2018-12-31T06:52:12.246Z,12.51
2018-12-31T06:54:38.652Z,12.40
2018-12-31T06:57:04.729Z,12.41
2018-12-31T06:59:31.204Z,12.49
2018-12-31T07:01:57.637Z,12.63
2018-12-31T07:04:23.734Z,12.52
2018-12-31T07:06:50.107Z,12.45
2018-12-31T07:09:16.513Z,12.47
2018-12-31T07:11:42.864Z,12.52
2018-12-31T07:14:08.932Z,12.44
2018-12-31T07:21:39.347Z,12.62
2018-12-31T07:24:05.434Z,12.49
2018-12-31T07:26:31.518Z,12.48
2018-12-31T07:28:57.637Z,12.48
2018-12-31T07:31:24.042Z,12.56
2018-12-31T07:33:50.077Z,12.62
2018-12-31T07:36:16.519Z,12.58
2018-12-31T07:38:42.590Z,12.67
2018-12-31T07:41:08.707Z,12.47
2018-12-31T07:43:34.773Z,12.46
2018-12-31T07:46:00.847Z,12.57
2018-12-31T07:48:26.950Z,12.40
2018-12-31T07:50:53.473Z,12.57
2018-12-31T07:53:19.588Z,12.51
2018-12-31T07:55:45.669Z,12.25
2018-12-31T07:58:11.700Z,12.29
2018-12-31T08:00:38.304Z,12.51
2018-12-31T08:03:04.714Z,12.51
2018-12-31T08:05:31.026Z,12.63
2018-12-31T08:07:57.388Z,12.76
2018-12-31T08:10:23.545Z,12.80
2018-12-31T08:12:49.633Z,12.75
2018-12-31T08:15:18.356Z,12.70
2018-12-31T08:17:44.774Z,12.75
2018-12-31T08:20:10.849Z,12.87
2018-12-31T08:22:37.309Z,12.80
2018-12-31T08:25:03.382Z,12.86
2018-12-31T08:27:29.560Z,12.84
2018-12-31T08:29:55.623Z,12.98
2018-12-31T08:32:22.009Z,12.95
2018-12-31T08:34:48.046Z,12.97
2018-12-31T08:37:14.122Z,12.95
2018-12-31T08:39:40.518Z,12.98
2018-12-31T08:42:06.913Z,13.00
2018-12-31T08:44:33.036Z,13.09
2018-12-31T08:46:59.327Z,13.08
2018-12-31T08:49:25.407Z,13.16
2018-12-31T08:51:51.884Z,13.58
2018-12-31T08:54:17.932Z,13.64
2018-12-31T08:56:44.015Z,13.47
2018-12-31T08:59:10.137Z,13.25
2018-12-31T09:01:36.563Z,13.22
2018-12-31T09:04:02.630Z,13.50
2018-12-31T09:06:28.877Z,13.85
2018-12-31T09:08:54.905Z,13.55
2018-12-31T09:11:24.643Z,13.40
2018-12-31T09:13:51.005Z,13.47
2018-12-31T09:16:17.049Z,13.41
2018-12-31T09:18:43.125Z,13.41
2018-12-31T09:21:09.636Z,13.42
2018-12-31T09:23:36.073Z,13.51
2018-12-31T09:26:02.160Z,13.44
2018-12-31T09:28:28.518Z,13.59
2018-12-31T09:30:54.876Z,13.51
2018-12-31T09:33:20.960Z,13.66
2018-12-31T09:35:47.102Z,13.72
2018-12-31T09:38:13.633Z,13.70
2018-12-31T09:40:39.710Z,13.76
2018-12-31T09:43:06.478Z,13.79
2018-12-31T09:45:32.769Z,13.85
2018-12-31T09:47:58.841Z,13.73
2018-12-31T09:50:25.242Z,13.67
2018-12-31T09:52:51.687Z,13.64
2018-12-31T09:55:18.090Z,13.62
2018-12-31T09:57:44.541Z,13.49
2018-12-31T10:00:11.031Z,13.62
2018-12-31T10:02:37.304Z,13.75
2018-12-31T10:05:03.412Z,13.79
2018-12-31T10:07:29.550Z,13.65
2018-12-31T10:09:55.570Z,13.69
2018-12-31T10:12:21.809Z,13.88
2018-12-31T10:14:47.824Z,14.10
2018-12-31T10:17:14.311Z,13.85
2018-12-31T10:19:40.494Z,13.90
2018-12-31T10:22:15.022Z,13.79
2018-12-31T10:24:41.134Z,13.77
2018-12-31T10:27:07.610Z,13.79
2018-12-31T10:29:36.255Z,13.83
2018-12-31T10:32:01.473Z,13.96
2018-12-31T10:34:27.508Z,14.08
2018-12-31T10:36:53.609Z,14.26
2018-12-31T10:39:19.677Z,14.20
2018-12-31T10:41:45.701Z,14.02
2018-12-31T10:44:11.777Z,14.01
2018-12-31T10:46:37.884Z,14.03
2018-12-31T10:49:04.357Z,14.29
2018-12-31T10:51:30.365Z,14.42
2018-12-31T10:53:56.471Z,14.60
2018-12-31T10:56:22.549Z,14.48
2018-12-31T10:58:48.573Z,14.37
2018-12-31T11:01:15.039Z,14.49
2018-12-31T11:03:42.077Z,14.45
2018-12-31T11:06:08.251Z,14.21
2018-12-31T11:08:34.333Z,14.08
2018-12-31T11:11:00.733Z,14.06
2018-12-31T11:13:27.251Z,14.57
2018-12-31T11:15:53.297Z,14.24
2018-12-31T11:18:19.394Z,14.01
2018-12-31T11:20:45.398Z,14.05
2018-12-31T11:23:11.465Z,14.15
2018-12-31T11:25:37.861Z,14.13
2018-12-31T11:28:03.990Z,14.10
2018-12-31T11:30:31.181Z,14.32
2018-12-31T11:32:57.568Z,14.29
2018-12-31T11:35:23.664Z,14.25
2018-12-31T11:37:49.746Z,14.21
2018-12-31T11:40:16.099Z,14.39
2018-12-31T11:42:42.179Z,14.18
2018-12-31T11:45:08.264Z,14.23
2018-12-31T11:47:34.382Z,14.22
2018-12-31T11:50:00.524Z,14.23
2018-12-31T11:52:26.705Z,14.15
2018-12-31T11:54:52.771Z,14.08
2018-12-31T11:57:21.226Z,14.28
2018-12-31T11:59:47.243Z,14.33
2018-12-31T12:02:13.447Z,14.37
2018-12-31T12:04:39.807Z,14.52
2018-12-31T12:07:06.380Z,14.53
2018-12-31T12:09:32.766Z,14.57
2018-12-31T12:11:59.109Z,14.51
2018-12-31T12:14:25.478Z,14.49
2018-12-31T12:16:52.211Z,14.62
2018-12-31T12:19:18.322Z,14.56
2018-12-31T12:21:44.460Z,14.65
2018-12-31T12:24:10.984Z,14.47
2018-12-31T12:26:37.324Z,14.47
2018-12-31T12:29:03.459Z,14.38
2018-12-31T12:31:30.385Z,14.34
2018-12-31T12:33:57.137Z,14.35
2018-12-31T12:36:23.542Z,14.16
2018-12-31T12:38:49.912Z,14.09
2018-12-31T12:41:16.019Z,14.06
2018-12-31T12:43:42.753Z,14.21
2018-12-31T12:46:10.204Z,14.29
2018-12-31T12:48:36.186Z,14.39
2018-12-31T12:51:02.566Z,14.29
2018-12-31T12:53:28.813Z,14.23
2018-12-31T12:56:00.345Z,14.05
2018-12-31T12:58:26.773Z,14.07
2018-12-31T13:00:52.798Z,14.06
2018-12-31T13:03:18.914Z,13.94
2018-12-31T13:05:45.397Z,14.04
2018-12-31T13:08:11.807Z,13.96
2018-12-31T13:10:37.974Z,14.13
2018-12-31T13:13:04.373Z,14.21
2018-12-31T13:15:31.012Z,14.22
2018-12-31T13:17:57.114Z,14.08
2018-12-31T13:20:23.198Z,14.10
2018-12-31T13:22:49.289Z,14.14
2018-12-31T13:25:15.698Z,14.05
2018-12-31T13:27:42.151Z,14.25
2018-12-31T13:30:10.459Z,14.27
2018-12-31T13:32:36.383Z,14.19
2018-12-31T13:35:02.754Z,14.00
2018-12-31T13:37:29.120Z,13.89
2018-12-31T13:39:55.221Z,14.01
2018-12-31T13:42:21.656Z,14.10
2018-12-31T13:44:48.224Z,14.00
2018-12-31T13:47:14.344Z,14.08
2018-12-31T13:49:40.450Z,14.11
2018-12-31T13:52:06.882Z,14.10
2018-12-31T13:54:33.063Z,14.07
2018-12-31T13:59:31.403Z,14.02
2018-12-31T14:01:58.163Z,13.99
2018-12-31T14:04:24.678Z,14.00
2018-12-31T14:06:50.711Z,14.01
2018-12-31T14:09:17.054Z,14.10
2018-12-31T14:11:43.576Z,14.00
2018-12-31T14:14:10.306Z,13.92
2018-12-31T14:16:36.819Z,14.01
2018-12-31T14:19:02.888Z,14.03
2018-12-31T14:21:29.334Z,14.04
2018-12-31T14:23:55.432Z,14.09
2018-12-31T14:26:21.861Z,14.12
2018-12-31T14:28:48.478Z,14.13
2018-12-31T14:31:14.575Z,14.20
2018-12-31T14:33:40.646Z,14.10
2018-12-31T14:36:06.792Z,14.12
2018-12-31T14:38:33.432Z,14.02
2018-12-31T14:40:59.858Z,14.15
2018-12-31T14:43:26.302Z,14.15
2018-12-31T14:45:52.718Z,14.18
2018-12-31T14:48:19.181Z,14.20
2018-12-31T14:50:45.265Z,14.09
2018-12-31T14:53:11.355Z,14.00
2018-12-31T14:55:37.490Z,14.06
2018-12-31T14:58:03.666Z,14.05
2018-12-31T15:00:29.995Z,13.97
2018-12-31T15:02:56.016Z,14.03
2018-12-31T15:05:22.457Z,14.09
2018-12-31T15:07:48.597Z,14.09
2018-12-31T15:10:15.017Z,14.07
2018-12-31T15:12:41.450Z,14.06
2018-12-31T15:15:07.522Z,14.01
2018-12-31T15:20:07.732Z,13.87
2018-12-31T15:22:34.004Z,13.88
2018-12-31T15:25:00.162Z,13.86
2018-12-31T15:27:32.941Z,13.85
2018-12-31T15:29:58.974Z,13.87
2018-12-31T15:32:25.073Z,14.00
2018-12-31T15:34:51.142Z,13.95
2018-12-31T15:37:17.956Z,13.90
2018-12-31T15:39:45.111Z,13.81
2018-12-31T15:42:11.503Z,13.79
2018-12-31T15:44:38.042Z,13.77
2018-12-31T15:47:04.417Z,13.98
2018-12-31T15:49:30.905Z,13.97
2018-12-31T15:51:59.363Z,13.85
2018-12-31T15:54:29.798Z,13.84
2018-12-31T15:56:56.148Z,13.87
2018-12-31T15:59:23.339Z,13.96
2018-12-31T16:01:49.466Z,14.03
2018-12-31T16:04:16.155Z,13.88
2018-12-31T16:06:56.639Z,13.91
2018-12-31T16:09:22.797Z,13.94
2018-12-31T16:11:51.239Z,13.70
2018-12-31T16:14:17.257Z,13.98
2018-12-31T16:16:43.344Z,13.86
2018-12-31T16:19:09.436Z,13.73
2018-12-31T16:21:35.502Z,13.89
2018-12-31T16:24:01.685Z,13.75
2018-12-31T16:26:29.872Z,13.78
2018-12-31T16:28:56.024Z,13.87
2018-12-31T16:31:22.553Z,13.86
2018-12-31T16:33:48.997Z,13.78
2018-12-31T16:36:15.415Z,13.74
2018-12-31T16:38:41.805Z,14.03
2018-12-31T16:41:08.036Z,13.79
2018-12-31T16:43:34.110Z,13.86
2018-12-31T16:46:00.226Z,13.74
2018-12-31T16:48:26.366Z,13.78
2018-12-31T16:50:55.053Z,13.75
2018-12-31T16:53:22.386Z,13.87
2018-12-31T16:58:25.309Z,13.87
2018-12-31T17:00:51.414Z,13.89
2018-12-31T17:03:17.547Z,13.81
2018-12-31T17:05:44.006Z,13.74
2018-12-31T17:08:10.391Z,13.73
2018-12-31T17:10:36.502Z,13.79
2018-12-31T17:13:02.614Z,13.84
2018-12-31T17:15:28.702Z,13.80
2018-12-31T17:17:54.803Z,13.79
2018-12-31T17:20:20.878Z,13.83
2018-12-31T17:22:47.396Z,13.75
2018-12-31T17:25:13.836Z,13.77
2018-12-31T17:27:40.065Z,13.88
2018-12-31T17:30:06.429Z,13.73
2018-12-31T17:32:32.814Z,13.82
2018-12-31T17:34:59.264Z,13.83
2018-12-31T17:37:25.334Z,13.81
2018-12-31T17:39:54.759Z,13.76
2018-12-31T17:42:21.136Z,13.88
2018-12-31T17:44:47.740Z,13.79
2018-12-31T17:47:14.189Z,13.78
2018-12-31T17:49:40.319Z,13.74
2018-12-31T17:52:06.797Z,13.91
2018-12-31T17:54:33.290Z,13.90
2018-12-31T17:56:59.888Z,13.93
2018-12-31T17:59:25.959Z,13.78
2018-12-31T18:01:51.985Z,13.90
2018-12-31T18:04:18.373Z,13.92
2018-12-31T18:06:44.442Z,13.92
2018-12-31T18:09:11.214Z,13.84
2018-12-31T18:11:37.687Z,13.78
2018-12-31T18:14:03.943Z,13.82
2018-12-31T18:16:30.311Z,13.73
2018-12-31T18:18:56.410Z,13.78
2018-12-31T18:21:22.958Z,13.78
2018-12-31T18:23:49.457Z,13.76
2018-12-31T18:26:15.535Z,13.82
2018-12-31T18:28:41.670Z,13.85
2018-12-31T18:31:07.978Z,13.78
2018-12-31T18:33:34.081Z,13.85
2018-12-31T18:36:00.176Z,13.69
2018-12-31T18:38:26.253Z,13.66
2018-12-31T18:40:52.344Z,13.62
2018-12-31T18:43:18.532Z,13.74
2018-12-31T18:45:46.143Z,13.76
2018-12-31T18:48:14.621Z,13.83
2018-12-31T18:50:40.687Z,13.87
2018-12-31T18:53:06.879Z,13.85
2018-12-31T18:55:33.599Z,13.85
2018-12-31T18:58:00.058Z,13.89
2018-12-31T19:00:26.129Z,13.99
2018-12-31T19:02:52.251Z,13.89
2018-12-31T19:05:19.635Z,13.91
2018-12-31T19:07:45.706Z,13.93
2018-12-31T19:10:13.226Z,13.89
2018-12-31T19:12:39.313Z,13.84
2018-12-31T19:15:07.934Z,13.95
2018-12-31T19:17:34.098Z,13.95
2018-12-31T19:20:00.200Z,14.02
2018-12-31T19:22:28.266Z,14.11
2018-12-31T19:24:54.027Z,14.03
2018-12-31T19:27:20.469Z,14.04
2018-12-31T19:29:46.801Z,13.89
2018-12-31T19:32:12.869Z,13.96
2018-12-31T19:34:39.346Z,13.92
2018-12-31T19:37:05.966Z,13.98
2018-12-31T19:39:32.555Z,13.92
2018-12-31T19:41:58.722Z,13.98
2018-12-31T19:44:24.743Z,13.99
2018-12-31T19:46:51.270Z,13.92
2018-12-31T19:49:17.734Z,13.84
2018-12-31T19:51:44.251Z,13.87
2018-12-31T19:54:10.436Z,13.90
2018-12-31T19:56:36.803Z,13.99
2018-12-31T19:59:04.058Z,13.99
2018-12-31T20:01:30.180Z,14.02
2018-12-31T20:03:56.266Z,14.02
2018-12-31T20:06:22.370Z,13.98
2018-12-31T20:08:48.763Z,13.98
2018-12-31T20:11:15.129Z,13.96
2018-12-31T20:13:41.265Z,14.02
2018-12-31T20:16:07.511Z,14.03
2018-12-31T20:18:33.582Z,14.04
2018-12-31T20:21:00.209Z,13.86
2018-12-31T20:23:26.337Z,13.87
2018-12-31T20:25:52.775Z,13.89
2018-12-31T20:28:19.398Z,13.98
2018-12-31T20:30:45.524Z,14.00
2018-12-31T20:33:12.233Z,14.11
2018-12-31T20:35:38.673Z,14.03
2018-12-31T20:38:05.016Z,14.09
2018-12-31T20:40:31.586Z,14.06
2018-12-31T20:42:57.703Z,14.03
2018-12-31T20:45:23.783Z,13.97
2018-12-31T20:47:50.261Z,14.01
2018-12-31T20:50:16.617Z,13.99
2018-12-31T20:52:42.648Z,13.87
2018-12-31T20:55:08.731Z,14.01
2018-12-31T20:57:35.290Z,14.11
2018-12-31T21:00:01.409Z,13.92
2018-12-31T21:02:27.949Z,13.96
2018-12-31T21:04:54.284Z,14.04
2018-12-31T21:07:20.430Z,14.07
2018-12-31T21:09:46.538Z,14.06
2018-12-31T21:12:12.713Z,14.02
2018-12-31T21:14:38.862Z,14.13
2018-12-31T21:17:05.313Z,14.08
2018-12-31T21:19:32.172Z,14.27
2018-12-31T21:21:58.306Z,14.18
2018-12-31T21:24:24.411Z,14.24
2018-12-31T21:26:50.500Z,14.19
2018-12-31T21:29:16.596Z,14.07
2018-12-31T21:31:42.717Z,13.90
2018-12-31T21:34:09.246Z,13.91
2018-12-31T21:36:35.882Z,13.85
2018-12-31T21:39:01.991Z,13.90
2018-12-31T21:41:28.313Z,13.83
2018-12-31T21:43:54.638Z,13.87
2018-12-31T21:46:20.706Z,13.87
2018-12-31T21:48:46.839Z,13.91
2018-12-31T21:51:13.277Z,14.00
2018-12-31T21:53:39.353Z,14.00
2018-12-31T21:56:05.531Z,14.06
2018-12-31T21:58:31.908Z,14.01
2018-12-31T22:00:58.070Z,14.03
2018-12-31T22:03:24.177Z,14.07
2018-12-31T22:05:50.531Z,13.96
2018-12-31T22:08:17.493Z,14.08
2018-12-31T22:10:43.776Z,14.16
2018-12-31T22:13:10.135Z,14.18
2018-12-31T22:15:36.476Z,14.10
2018-12-31T22:18:02.880Z,14.15
2018-12-31T22:20:29.453Z,14.17
2018-12-31T22:22:55.635Z,14.22
2018-12-31T22:25:22.013Z,14.17
2018-12-31T22:27:48.360Z,14.22
2018-12-31T22:30:14.501Z,14.14
2018-12-31T22:32:40.549Z,14.26
2018-12-31T22:35:06.919Z,14.20
2018-12-31T22:37:32.950Z,14.26
2018-12-31T22:39:59.858Z,14.26
2018-12-31T22:42:27.623Z,14.32
2018-12-31T22:44:55.265Z,14.28
2018-12-31T22:47:21.606Z,14.15
2018-12-31T22:49:47.796Z,14.17
2018-12-31T22:52:14.073Z,14.17
2018-12-31T22:54:40.570Z,14.19
2018-12-31T22:58:55.790Z,14.38
2018-12-31T23:01:22.693Z,14.36
2018-12-31T23:03:52.200Z,14.30
2018-12-31T23:06:19.176Z,14.33
2018-12-31T23:08:46.140Z,14.17
2018-12-31T23:11:14.563Z,14.54
2018-12-31T23:13:41.516Z,14.81
2018-12-31T23:16:08.997Z,14.92
2018-12-31T23:18:37.512Z,14.70
2018-12-31T23:21:04.547Z,14.42
2018-12-31T23:23:31.510Z,14.43
2018-12-31T23:25:59.166Z,14.44
2018-12-31T23:28:26.378Z,14.39
2018-12-31T23:30:53.653Z,14.43
2018-12-31T23:33:20.888Z,14.48
2018-12-31T23:35:48.092Z,14.67
2018-12-31T23:38:15.072Z,14.61
2018-12-31T23:40:42.023Z,14.53
2018-12-31T23:43:09.440Z,14.47
2018-12-31T23:45:36.809Z,14.45
2018-12-31T23:48:04.049Z,14.58
2018-12-31T23:50:31.013Z,14.49
2018-12-31T23:52:57.983Z,14.49
2018-12-31T23:55:28.241Z,14.42
2018-12-31T23:57:57.359Z,14.43
